sensor_id;sensor_type;location;lat;lon;timestamp;temperature;humidity
23560;DHT22;11958;50.836;4.438;2023-03-23T00:02:22;13.50;81.70
23560;DHT22;11958;50.836;4.438;2023-03-23T00:04:48;13.60;81.90
23560;DHT22;11958;50.836;4.438;2023-03-23T00:07:14;13.40;82.20
23560;DHT22;11958;50.836;4.438;2023-03-23T00:09:49;13.40;82.30
23560;DHT22;11958;50.836;4.438;2023-03-23T00:12:25;13.50;82.10
23560;DHT22;11958;50.836;4.438;2023-03-23T00:15:02;13.40;81.60
23560;DHT22;11958;50.836;4.438;2023-03-23T00:17:29;13.60;82.30
23560;DHT22;11958;50.836;4.438;2023-03-23T00:19:55;13.50;81.90
23560;DHT22;11958;50.836;4.438;2023-03-23T00:22:21;13.40;82.10
23560;DHT22;11958;50.836;4.438;2023-03-23T00:24:50;13.50;82.00
23560;DHT22;11958;50.836;4.438;2023-03-23T00:27:17;13.40;82.20
23560;DHT22;11958;50.836;4.438;2023-03-23T00:29:43;13.40;82.10
23560;DHT22;11958;50.836;4.438;2023-03-23T00:32:11;13.40;82.00
23560;DHT22;11958;50.836;4.438;2023-03-23T00:34:42;13.30;82.70
23560;DHT22;11958;50.836;4.438;2023-03-23T00:37:10;13.30;82.60
23560;DHT22;11958;50.836;4.438;2023-03-23T00:39:36;13.30;82.60
23560;DHT22;11958;50.836;4.438;2023-03-23T00:42:04;13.40;82.10
23560;DHT22;11958;50.836;4.438;2023-03-23T00:44:31;13.20;82.30
23560;DHT22;11958;50.836;4.438;2023-03-23T00:46:58;13.40;82.50
23560;DHT22;11958;50.836;4.438;2023-03-23T00:49:25;13.40;82.30
23560;DHT22;11958;50.836;4.438;2023-03-23T00:51:53;13.30;82.20
23560;DHT22;11958;50.836;4.438;2023-03-23T00:54:19;13.20;82.90
23560;DHT22;11958;50.836;4.438;2023-03-23T00:56:45;13.40;82.50
23560;DHT22;11958;50.836;4.438;2023-03-23T00:59:11;13.50;81.80
23560;DHT22;11958;50.836;4.438;2023-03-23T01:01:36;13.60;82.20
23560;DHT22;11958;50.836;4.438;2023-03-23T01:04:03;13.50;82.20
23560;DHT22;11958;50.836;4.438;2023-03-23T01:06:35;13.40;82.10
23560;DHT22;11958;50.836;4.438;2023-03-23T01:09:04;13.40;82.60
23560;DHT22;11958;50.836;4.438;2023-03-23T01:11:31;13.30;82.90
23560;DHT22;11958;50.836;4.438;2023-03-23T01:13:57;13.40;82.60
23560;DHT22;11958;50.836;4.438;2023-03-23T01:16:23;13.30;82.80
23560;DHT22;11958;50.836;4.438;2023-03-23T01:19:05;13.30;83.00
23560;DHT22;11958;50.836;4.438;2023-03-23T01:28:40;13.20;83.70
23560;DHT22;11958;50.836;4.438;2023-03-23T01:31:06;13.20;83.50
23560;DHT22;11958;50.836;4.438;2023-03-23T01:45:43;13.30;81.80
23560;DHT22;11958;50.836;4.438;2023-03-23T01:54:58;13.10;82.20
23560;DHT22;11958;50.836;4.438;2023-03-23T01:57:25;13.30;82.10
23560;DHT22;11958;50.836;4.438;2023-03-23T01:59:55;13.20;82.10
23560;DHT22;11958;50.836;4.438;2023-03-23T02:02:24;13.20;82.20
23560;DHT22;11958;50.836;4.438;2023-03-23T02:04:50;13.30;81.60
23560;DHT22;11958;50.836;4.438;2023-03-23T02:07:19;13.30;82.00
23560;DHT22;11958;50.836;4.438;2023-03-23T02:09:45;13.30;81.80
23560;DHT22;11958;50.836;4.438;2023-03-23T02:12:11;13.30;81.70
23560;DHT22;11958;50.836;4.438;2023-03-23T02:14:37;13.30;82.30
23560;DHT22;11958;50.836;4.438;2023-03-23T02:17:24;13.20;81.70
23560;DHT22;11958;50.836;4.438;2023-03-23T02:38:17;13.20;80.10
23560;DHT22;11958;50.836;4.438;2023-03-23T02:40:48;13.20;80.30
23560;DHT22;11958;50.836;4.438;2023-03-23T02:43:17;13.10;79.80
23560;DHT22;11958;50.836;4.438;2023-03-23T02:45:45;13.10;79.60
23560;DHT22;11958;50.836;4.438;2023-03-23T02:48:13;13.20;79.30
23560;DHT22;11958;50.836;4.438;2023-03-23T02:50:43;13.20;78.90
23560;DHT22;11958;50.836;4.438;2023-03-23T02:53:12;13.20;79.30
23560;DHT22;11958;50.836;4.438;2023-03-23T02:55:41;13.30;79.00
23560;DHT22;11958;50.836;4.438;2023-03-23T02:58:11;13.20;79.00
23560;DHT22;11958;50.836;4.438;2023-03-23T03:00:38;13.20;79.10
23560;DHT22;11958;50.836;4.438;2023-03-23T03:03:05;13.20;79.30
23560;DHT22;11958;50.836;4.438;2023-03-23T03:05:53;13.20;78.90
23560;DHT22;11958;50.836;4.438;2023-03-23T03:08:41;13.40;78.20
23560;DHT22;11958;50.836;4.438;2023-03-23T03:11:13;13.20;79.10
23560;DHT22;11958;50.836;4.438;2023-03-23T03:14:10;13.20;78.90
23560;DHT22;11958;50.836;4.438;2023-03-23T03:19:50;13.10;78.50
23560;DHT22;11958;50.836;4.438;2023-03-23T03:22:19;13.30;78.40
23560;DHT22;11958;50.836;4.438;2023-03-23T03:24:47;13.20;78.20
23560;DHT22;11958;50.836;4.438;2023-03-23T03:27:16;13.20;77.90
23560;DHT22;11958;50.836;4.438;2023-03-23T03:29:45;13.20;77.80
23560;DHT22;11958;50.836;4.438;2023-03-23T03:32:16;13.30;78.00
23560;DHT22;11958;50.836;4.438;2023-03-23T03:34:44;13.30;77.40
23560;DHT22;11958;50.836;4.438;2023-03-23T03:37:10;13.30;77.40
23560;DHT22;11958;50.836;4.438;2023-03-23T03:39:37;13.30;77.20
23560;DHT22;11958;50.836;4.438;2023-03-23T03:42:04;13.30;77.40
23560;DHT22;11958;50.836;4.438;2023-03-23T03:44:30;13.30;77.60
23560;DHT22;11958;50.836;4.438;2023-03-23T03:46:56;13.20;77.90
23560;DHT22;11958;50.836;4.438;2023-03-23T03:49:22;13.20;77.90
23560;DHT22;11958;50.836;4.438;2023-03-23T03:51:48;13.20;78.60
23560;DHT22;11958;50.836;4.438;2023-03-23T03:54:14;13.20;78.30
23560;DHT22;11958;50.836;4.438;2023-03-23T03:56:41;13.20;78.50
23560;DHT22;11958;50.836;4.438;2023-03-23T03:59:08;13.30;78.10
23560;DHT22;11958;50.836;4.438;2023-03-23T04:01:36;13.40;78.20
23560;DHT22;11958;50.836;4.438;2023-03-23T04:04:03;13.20;78.60
23560;DHT22;11958;50.836;4.438;2023-03-23T04:06:29;13.40;78.00
23560;DHT22;11958;50.836;4.438;2023-03-23T04:08:57;13.20;78.30
23560;DHT22;11958;50.836;4.438;2023-03-23T04:11:24;13.10;78.40
23560;DHT22;11958;50.836;4.438;2023-03-23T04:13:50;13.00;78.50
23560;DHT22;11958;50.836;4.438;2023-03-23T04:16:16;13.20;78.40
23560;DHT22;11958;50.836;4.438;2023-03-23T04:18:42;13.10;78.20
23560;DHT22;11958;50.836;4.438;2023-03-23T04:21:08;13.00;77.90
23560;DHT22;11958;50.836;4.438;2023-03-23T04:23:35;13.00;77.70
23560;DHT22;11958;50.836;4.438;2023-03-23T04:26:02;13.20;77.20
23560;DHT22;11958;50.836;4.438;2023-03-23T04:28:28;13.20;77.30
23560;DHT22;11958;50.836;4.438;2023-03-23T04:30:55;13.20;77.20
23560;DHT22;11958;50.836;4.438;2023-03-23T04:33:22;13.10;76.90
23560;DHT22;11958;50.836;4.438;2023-03-23T04:35:51;13.00;77.30
23560;DHT22;11958;50.836;4.438;2023-03-23T04:38:17;13.10;76.70
23560;DHT22;11958;50.836;4.438;2023-03-23T04:40:47;13.10;76.20
23560;DHT22;11958;50.836;4.438;2023-03-23T04:43:17;13.00;77.30
23560;DHT22;11958;50.836;4.438;2023-03-23T04:45:42;13.00;76.90
23560;DHT22;11958;50.836;4.438;2023-03-23T04:48:11;13.00;76.50
23560;DHT22;11958;50.836;4.438;2023-03-23T04:50:37;13.00;76.70
23560;DHT22;11958;50.836;4.438;2023-03-23T04:53:04;13.10;76.50
23560;DHT22;11958;50.836;4.438;2023-03-23T04:55:32;13.10;76.30
23560;DHT22;11958;50.836;4.438;2023-03-23T04:58:05;13.20;76.70
23560;DHT22;11958;50.836;4.438;2023-03-23T05:00:31;13.00;76.80
23560;DHT22;11958;50.836;4.438;2023-03-23T05:02:58;13.00;76.80
23560;DHT22;11958;50.836;4.438;2023-03-23T05:05:24;12.90;76.90
23560;DHT22;11958;50.836;4.438;2023-03-23T05:18:18;12.80;77.50
23560;DHT22;11958;50.836;4.438;2023-03-23T05:24:10;12.90;77.50
23560;DHT22;11958;50.836;4.438;2023-03-23T05:33:27;13.00;77.70
23560;DHT22;11958;50.836;4.438;2023-03-23T05:39:22;12.70;79.20
23560;DHT22;11958;50.836;4.438;2023-03-23T05:41:48;12.80;78.80
23560;DHT22;11958;50.836;4.438;2023-03-23T05:44:13;12.90;78.70
23560;DHT22;11958;50.836;4.438;2023-03-23T05:46:40;12.90;78.90
23560;DHT22;11958;50.836;4.438;2023-03-23T05:49:05;12.90;78.90
23560;DHT22;11958;50.836;4.438;2023-03-23T05:51:31;12.80;78.90
23560;DHT22;11958;50.836;4.438;2023-03-23T05:53:57;13.00;78.50
23560;DHT22;11958;50.836;4.438;2023-03-23T05:56:24;12.90;78.60
23560;DHT22;11958;50.836;4.438;2023-03-23T05:58:50;12.80;78.70
23560;DHT22;11958;50.836;4.438;2023-03-23T06:21:27;12.70;78.80
23560;DHT22;11958;50.836;4.438;2023-03-23T06:39:00;12.90;78.50
23560;DHT22;11958;50.836;4.438;2023-03-23T06:41:36;12.90;77.90
23560;DHT22;11958;50.836;4.438;2023-03-23T06:47:25;12.90;77.60
23560;DHT22;11958;50.836;4.438;2023-03-23T06:58:17;12.60;81.90
23560;DHT22;11958;50.836;4.438;2023-03-23T07:04:20;12.30;83.00
23560;DHT22;11958;50.836;4.438;2023-03-23T07:06:46;12.50;83.10
23560;DHT22;11958;50.836;4.438;2023-03-23T07:28:45;11.10;90.10
23560;DHT22;11958;50.836;4.438;2023-03-23T07:31:43;11.00;90.10
23560;DHT22;11958;50.836;4.438;2023-03-23T07:37:30;10.60;92.80
23560;DHT22;11958;50.836;4.438;2023-03-23T07:39:57;10.60;94.40
23560;DHT22;11958;50.836;4.438;2023-03-23T07:42:23;10.60;94.90
23560;DHT22;11958;50.836;4.438;2023-03-23T07:52:36;10.60;94.20
23560;DHT22;11958;50.836;4.438;2023-03-23T07:55:02;10.60;94.20
23560;DHT22;11958;50.836;4.438;2023-03-23T07:57:29;10.70;93.70
23560;DHT22;11958;50.836;4.438;2023-03-23T07:59:56;10.90;93.00
23560;DHT22;11958;50.836;4.438;2023-03-23T08:02:23;11.00;93.00
23560;DHT22;11958;50.836;4.438;2023-03-23T08:04:49;11.00;91.50
23560;DHT22;11958;50.836;4.438;2023-03-23T08:07:16;11.00;92.30
23560;DHT22;11958;50.836;4.438;2023-03-23T08:09:43;11.20;92.50
23560;DHT22;11958;50.836;4.438;2023-03-23T08:12:09;11.40;90.40
23560;DHT22;11958;50.836;4.438;2023-03-23T08:14:35;11.50;89.70
23560;DHT22;11958;50.836;4.438;2023-03-23T08:17:05;11.40;88.10
23560;DHT22;11958;50.836;4.438;2023-03-23T08:19:31;11.20;90.00
23560;DHT22;11958;50.836;4.438;2023-03-23T08:22:05;11.20;89.70
23560;DHT22;11958;50.836;4.438;2023-03-23T08:24:32;11.00;89.20
23560;DHT22;11958;50.836;4.438;2023-03-23T08:27:00;11.00;89.90
23560;DHT22;11958;50.836;4.438;2023-03-23T08:29:26;10.90;89.30
23560;DHT22;11958;50.836;4.438;2023-03-23T08:31:52;10.70;88.70
23560;DHT22;11958;50.836;4.438;2023-03-23T08:34:19;10.60;90.10
23560;DHT22;11958;50.836;4.438;2023-03-23T08:36:45;10.50;90.40
23560;DHT22;11958;50.836;4.438;2023-03-23T08:39:12;10.50;89.70
23560;DHT22;11958;50.836;4.438;2023-03-23T08:41:40;10.30;90.90
23560;DHT22;11958;50.836;4.438;2023-03-23T08:44:10;10.30;91.60
23560;DHT22;11958;50.836;4.438;2023-03-23T08:46:36;10.60;91.90
23560;DHT22;11958;50.836;4.438;2023-03-23T08:49:02;10.50;90.70
23560;DHT22;11958;50.836;4.438;2023-03-23T08:54:03;10.40;91.10
23560;DHT22;11958;50.836;4.438;2023-03-23T08:56:28;10.60;92.20
23560;DHT22;11958;50.836;4.438;2023-03-23T08:58:54;10.70;92.50
23560;DHT22;11958;50.836;4.438;2023-03-23T09:01:21;10.80;90.60
23560;DHT22;11958;50.836;4.438;2023-03-23T09:03:46;10.70;92.00
23560;DHT22;11958;50.836;4.438;2023-03-23T09:06:14;11.00;92.30
23560;DHT22;11958;50.836;4.438;2023-03-23T09:08:39;10.90;91.20
23560;DHT22;11958;50.836;4.438;2023-03-23T09:14:06;10.70;91.30
23560;DHT22;11958;50.836;4.438;2023-03-23T09:16:34;10.80;92.70
23560;DHT22;11958;50.836;4.438;2023-03-23T09:19:00;11.00;92.10
23560;DHT22;11958;50.836;4.438;2023-03-23T09:21:27;10.80;92.40
23560;DHT22;11958;50.836;4.438;2023-03-23T09:23:53;10.90;92.70
23560;DHT22;11958;50.836;4.438;2023-03-23T09:26:24;11.10;93.30
23560;DHT22;11958;50.836;4.438;2023-03-23T09:28:50;11.00;92.90
23560;DHT22;11958;50.836;4.438;2023-03-23T09:31:17;10.90;93.30
23560;DHT22;11958;50.836;4.438;2023-03-23T09:33:46;10.90;93.00
23560;DHT22;11958;50.836;4.438;2023-03-23T09:36:12;11.40;93.40
23560;DHT22;11958;50.836;4.438;2023-03-23T09:38:40;11.40;92.90
23560;DHT22;11958;50.836;4.438;2023-03-23T09:54:41;11.80;92.60
23560;DHT22;11958;50.836;4.438;2023-03-23T10:04:12;12.40;92.50
23560;DHT22;11958;50.836;4.438;2023-03-23T10:10:12;12.60;89.40
23560;DHT22;11958;50.836;4.438;2023-03-23T10:13:00;12.60;90.60
23560;DHT22;11958;50.836;4.438;2023-03-23T10:15:30;13.00;87.10
23560;DHT22;11958;50.836;4.438;2023-03-23T10:20:56;13.10;86.30
23560;DHT22;11958;50.836;4.438;2023-03-23T10:31:59;13.50;84.90
23560;DHT22;11958;50.836;4.438;2023-03-23T10:34:57;13.40;84.80
23560;DHT22;11958;50.836;4.438;2023-03-23T10:37:37;13.40;84.40
23560;DHT22;11958;50.836;4.438;2023-03-23T10:40:18;13.30;84.40
23560;DHT22;11958;50.836;4.438;2023-03-23T10:42:44;13.40;85.50
23560;DHT22;11958;50.836;4.438;2023-03-23T10:45:27;13.80;85.30
23560;DHT22;11958;50.836;4.438;2023-03-23T10:48:30;13.80;82.80
23560;DHT22;11958;50.836;4.438;2023-03-23T11:05:02;14.40;81.30
23560;DHT22;11958;50.836;4.438;2023-03-23T11:13:33;14.50;79.30
23560;DHT22;11958;50.836;4.438;2023-03-23T11:16:31;14.50;80.90
23560;DHT22;11958;50.836;4.438;2023-03-23T11:22:26;14.30;80.00
23560;DHT22;11958;50.836;4.438;2023-03-23T11:24:55;14.50;79.80
23560;DHT22;11958;50.836;4.438;2023-03-23T11:27:22;14.50;80.30
23560;DHT22;11958;50.836;4.438;2023-03-23T11:29:54;14.50;79.50
23560;DHT22;11958;50.836;4.438;2023-03-23T11:32:28;14.60;78.70
23560;DHT22;11958;50.836;4.438;2023-03-23T11:35:00;14.60;78.40
23560;DHT22;11958;50.836;4.438;2023-03-23T11:37:50;14.40;78.80
23560;DHT22;11958;50.836;4.438;2023-03-23T11:40:22;14.80;79.80
23560;DHT22;11958;50.836;4.438;2023-03-23T11:43:00;15.50;76.60
23560;DHT22;11958;50.836;4.438;2023-03-23T11:45:36;15.40;75.50
23560;DHT22;11958;50.836;4.438;2023-03-23T11:53:52;15.10;74.90
23560;DHT22;11958;50.836;4.438;2023-03-23T11:56:33;15.30;75.50
23560;DHT22;11958;50.836;4.438;2023-03-23T11:58:59;15.70;71.80
23560;DHT22;11958;50.836;4.438;2023-03-23T12:17:54;15.80;69.70
23560;DHT22;11958;50.836;4.438;2023-03-23T12:20:37;16.30;66.30
23560;DHT22;11958;50.836;4.438;2023-03-23T12:37:20;16.80;61.40
23560;DHT22;11958;50.836;4.438;2023-03-23T12:42:43;16.00;65.30
23560;DHT22;11958;50.836;4.438;2023-03-23T12:48:24;16.30;66.20
23560;DHT22;11958;50.836;4.438;2023-03-23T12:54:24;16.70;63.60
23560;DHT22;11958;50.836;4.438;2023-03-23T13:10:39;18.40;61.50
23560;DHT22;11958;50.836;4.438;2023-03-23T13:13:22;20.00;56.50
23560;DHT22;11958;50.836;4.438;2023-03-23T13:18:41;19.80;54.60
23560;DHT22;11958;50.836;4.438;2023-03-23T13:25:07;19.30;57.40
23560;DHT22;11958;50.836;4.438;2023-03-23T13:27:34;20.00;54.80
23560;DHT22;11958;50.836;4.438;2023-03-23T13:30:01;20.50;50.60
23560;DHT22;11958;50.836;4.438;2023-03-23T13:32:43;21.50;46.70
23560;DHT22;11958;50.836;4.438;2023-03-23T13:35:22;20.10;49.90
23560;DHT22;11958;50.836;4.438;2023-03-23T13:38:11;18.30;55.20
23560;DHT22;11958;50.836;4.438;2023-03-23T13:43:49;18.20;54.40
23560;DHT22;11958;50.836;4.438;2023-03-23T13:52:17;16.30;60.60
23560;DHT22;11958;50.836;4.438;2023-03-23T13:54:45;16.30;60.80
23560;DHT22;11958;50.836;4.438;2023-03-23T13:57:48;16.10;61.60
23560;DHT22;11958;50.836;4.438;2023-03-23T14:00:45;16.20;62.10
23560;DHT22;11958;50.836;4.438;2023-03-23T14:03:40;15.90;66.70
23560;DHT22;11958;50.836;4.438;2023-03-23T14:06:13;15.30;73.90
23560;DHT22;11958;50.836;4.438;2023-03-23T14:08:43;14.70;77.90
23560;DHT22;11958;50.836;4.438;2023-03-23T14:11:22;14.30;76.10
23560;DHT22;11958;50.836;4.438;2023-03-23T14:14:04;14.10;75.10
23560;DHT22;11958;50.836;4.438;2023-03-23T14:23:51;14.10;81.30
23560;DHT22;11958;50.836;4.438;2023-03-23T14:26:19;14.20;78.70
23560;DHT22;11958;50.836;4.438;2023-03-23T14:39:28;15.30;77.80
23560;DHT22;11958;50.836;4.438;2023-03-23T14:42:28;15.20;75.90
23560;DHT22;11958;50.836;4.438;2023-03-23T14:45:14;15.20;75.60
23560;DHT22;11958;50.836;4.438;2023-03-23T14:48:00;15.00;77.40
23560;DHT22;11958;50.836;4.438;2023-03-23T14:53:22;15.00;71.60
23560;DHT22;11958;50.836;4.438;2023-03-23T15:04:44;16.40;68.70
23560;DHT22;11958;50.836;4.438;2023-03-23T15:17:26;16.90;59.80
23560;DHT22;11958;50.836;4.438;2023-03-23T15:19:53;16.80;61.30
23560;DHT22;11958;50.836;4.438;2023-03-23T15:22:48;16.70;61.00
23560;DHT22;11958;50.836;4.438;2023-03-23T15:32:09;16.40;63.30
23560;DHT22;11958;50.836;4.438;2023-03-23T15:38:05;16.40;65.10
23560;DHT22;11958;50.836;4.438;2023-03-23T15:40:33;16.20;65.60
23560;DHT22;11958;50.836;4.438;2023-03-23T16:00:18;15.50;69.50
23560;DHT22;11958;50.836;4.438;2023-03-23T16:02:49;15.90;69.90
23560;DHT22;11958;50.836;4.438;2023-03-23T16:05:17;15.80;68.80
23560;DHT22;11958;50.836;4.438;2023-03-23T16:07:42;15.80;69.50
23560;DHT22;11958;50.836;4.438;2023-03-23T16:10:15;15.90;68.10
23560;DHT22;11958;50.836;4.438;2023-03-23T16:15:17;15.90;67.50
23560;DHT22;11958;50.836;4.438;2023-03-23T16:17:44;15.90;67.70
23560;DHT22;11958;50.836;4.438;2023-03-23T16:20:13;16.00;66.60
23560;DHT22;11958;50.836;4.438;2023-03-23T16:22:39;15.60;66.70
23560;DHT22;11958;50.836;4.438;2023-03-23T16:25:06;15.70;67.00
23560;DHT22;11958;50.836;4.438;2023-03-23T16:27:37;15.70;68.10
23560;DHT22;11958;50.836;4.438;2023-03-23T16:30:31;15.70;66.50
23560;DHT22;11958;50.836;4.438;2023-03-23T16:36:30;16.10;66.70
23560;DHT22;11958;50.836;4.438;2023-03-23T16:39:01;16.00;64.90
23560;DHT22;11958;50.836;4.438;2023-03-23T16:41:36;16.00;64.70
23560;DHT22;11958;50.836;4.438;2023-03-23T16:44:11;15.90;64.80
23560;DHT22;11958;50.836;4.438;2023-03-23T16:53:22;15.70;65.70
23560;DHT22;11958;50.836;4.438;2023-03-23T16:55:51;15.60;66.10
23560;DHT22;11958;50.836;4.438;2023-03-23T16:58:35;15.50;66.70
23560;DHT22;11958;50.836;4.438;2023-03-23T17:04:23;15.40;67.70
23560;DHT22;11958;50.836;4.438;2023-03-23T17:06:49;15.30;68.30
23560;DHT22;11958;50.836;4.438;2023-03-23T17:09:36;15.20;70.10
23560;DHT22;11958;50.836;4.438;2023-03-23T17:12:08;15.40;69.40
23560;DHT22;11958;50.836;4.438;2023-03-23T17:22:15;15.20;69.00
23560;DHT22;11958;50.836;4.438;2023-03-23T17:25:00;15.20;68.70
23560;DHT22;11958;50.836;4.438;2023-03-23T17:27:34;15.20;69.70
23560;DHT22;11958;50.836;4.438;2023-03-23T17:33:07;15.30;68.50
23560;DHT22;11958;50.836;4.438;2023-03-23T17:35:32;15.20;69.30
23560;DHT22;11958;50.836;4.438;2023-03-23T17:38:19;15.30;70.10
23560;DHT22;11958;50.836;4.438;2023-03-23T17:40:47;15.30;68.00
23560;DHT22;11958;50.836;4.438;2023-03-23T17:50:19;15.20;68.70
23560;DHT22;11958;50.836;4.438;2023-03-23T17:53:05;15.20;69.30
23560;DHT22;11958;50.836;4.438;2023-03-23T17:55:48;15.30;68.80
23560;DHT22;11958;50.836;4.438;2023-03-23T18:02:01;15.20;68.10
23560;DHT22;11958;50.836;4.438;2023-03-23T18:04:47;15.10;68.80
23560;DHT22;11958;50.836;4.438;2023-03-23T18:14:00;15.10;68.80
23560;DHT22;11958;50.836;4.438;2023-03-23T18:39:42;15.10;68.80
23560;DHT22;11958;50.836;4.438;2023-03-23T18:45:55;15.10;70.70
23560;DHT22;11958;50.836;4.438;2023-03-23T18:48:58;14.70;71.40
23560;DHT22;11958;50.836;4.438;2023-03-23T18:51:24;14.80;72.20
23560;DHT22;11958;50.836;4.438;2023-03-23T18:53:53;14.80;73.80
23560;DHT22;11958;50.836;4.438;2023-03-23T18:56:19;14.60;74.30
23560;DHT22;11958;50.836;4.438;2023-03-23T18:58:45;14.60;74.50
23560;DHT22;11958;50.836;4.438;2023-03-23T19:01:13;14.40;75.90
23560;DHT22;11958;50.836;4.438;2023-03-23T19:03:40;14.40;77.10
23560;DHT22;11958;50.836;4.438;2023-03-23T19:06:12;14.40;76.10
23560;DHT22;11958;50.836;4.438;2023-03-23T19:08:42;14.40;75.70
23560;DHT22;11958;50.836;4.438;2023-03-23T19:11:22;14.30;76.00
23560;DHT22;11958;50.836;4.438;2023-03-23T19:14:05;14.40;76.10
23560;DHT22;11958;50.836;4.438;2023-03-23T19:16:34;14.20;76.70
23560;DHT22;11958;50.836;4.438;2023-03-23T19:22:27;14.20;77.20
23560;DHT22;11958;50.836;4.438;2023-03-23T19:24:53;14.10;77.70
23560;DHT22;11958;50.836;4.438;2023-03-23T19:27:50;14.30;77.40
23560;DHT22;11958;50.836;4.438;2023-03-23T19:30:19;14.20;77.40
23560;DHT22;11958;50.836;4.438;2023-03-23T19:35:25;14.20;77.00
23560;DHT22;11958;50.836;4.438;2023-03-23T19:37:52;14.30;77.10
23560;DHT22;11958;50.836;4.438;2023-03-23T19:40:20;14.20;77.00
23560;DHT22;11958;50.836;4.438;2023-03-23T19:45:58;14.20;77.60
23560;DHT22;11958;50.836;4.438;2023-03-23T19:48:26;14.00;77.60
23560;DHT22;11958;50.836;4.438;2023-03-23T19:50:53;14.20;76.90
23560;DHT22;11958;50.836;4.438;2023-03-23T19:53:20;14.30;75.50
23560;DHT22;11958;50.836;4.438;2023-03-23T19:58:12;14.10;75.70
23560;DHT22;11958;50.836;4.438;2023-03-23T20:00:38;14.00;77.10
23560;DHT22;11958;50.836;4.438;2023-03-23T20:06:35;14.00;75.00
23560;DHT22;11958;50.836;4.438;2023-03-23T20:09:02;14.10;75.10
23560;DHT22;11958;50.836;4.438;2023-03-23T20:11:29;14.00;75.70
23560;DHT22;11958;50.836;4.438;2023-03-23T20:18:50;14.00;76.00
23560;DHT22;11958;50.836;4.438;2023-03-23T20:21:34;13.80;75.70
23560;DHT22;11958;50.836;4.438;2023-03-23T20:24:00;13.90;76.20
23560;DHT22;11958;50.836;4.438;2023-03-23T20:26:32;13.80;76.60
23560;DHT22;11958;50.836;4.438;2023-03-23T20:29:10;13.80;77.30
23560;DHT22;11958;50.836;4.438;2023-03-23T20:31:38;13.70;77.90
23560;DHT22;11958;50.836;4.438;2023-03-23T20:34:07;13.50;78.80
23560;DHT22;11958;50.836;4.438;2023-03-23T20:36:39;13.40;79.50
23560;DHT22;11958;50.836;4.438;2023-03-23T20:39:17;13.30;80.50
23560;DHT22;11958;50.836;4.438;2023-03-23T20:41:51;13.20;80.40
23560;DHT22;11958;50.836;4.438;2023-03-23T20:44:20;13.20;82.00
23560;DHT22;11958;50.836;4.438;2023-03-23T20:47:03;13.00;83.40
23560;DHT22;11958;50.836;4.438;2023-03-23T20:56:53;12.90;85.70
23560;DHT22;11958;50.836;4.438;2023-03-23T21:02:49;12.60;88.70
23560;DHT22;11958;50.836;4.438;2023-03-23T21:05:18;12.70;88.60
23560;DHT22;11958;50.836;4.438;2023-03-23T21:07:44;12.50;89.10
23560;DHT22;11958;50.836;4.438;2023-03-23T21:10:17;12.70;87.70
23560;DHT22;11958;50.836;4.438;2023-03-23T21:12:43;12.70;89.30
23560;DHT22;11958;50.836;4.438;2023-03-23T21:15:17;12.60;90.50
23560;DHT22;11958;50.836;4.438;2023-03-23T21:21:12;12.60;91.20
23560;DHT22;11958;50.836;4.438;2023-03-23T21:23:45;12.60;90.90
23560;DHT22;11958;50.836;4.438;2023-03-23T21:26:13;12.40;91.60
23560;DHT22;11958;50.836;4.438;2023-03-23T21:28:41;12.40;91.20
23560;DHT22;11958;50.836;4.438;2023-03-23T21:31:17;12.40;90.70
23560;DHT22;11958;50.836;4.438;2023-03-23T21:33:43;12.20;92.40
23560;DHT22;11958;50.836;4.438;2023-03-23T21:36:11;12.40;92.10
23560;DHT22;11958;50.836;4.438;2023-03-23T21:38:37;12.40;91.60
23560;DHT22;11958;50.836;4.438;2023-03-23T21:41:22;12.40;91.60
23560;DHT22;11958;50.836;4.438;2023-03-23T21:44:22;12.20;92.80
23560;DHT22;11958;50.836;4.438;2023-03-23T21:47:05;12.40;92.80
23560;DHT22;11958;50.836;4.438;2023-03-23T21:49:47;12.50;91.20
23560;DHT22;11958;50.836;4.438;2023-03-23T21:52:16;12.30;92.30
23560;DHT22;11958;50.836;4.438;2023-03-23T21:54:42;12.40;92.20
23560;DHT22;11958;50.836;4.438;2023-03-23T21:57:27;12.20;92.90
23560;DHT22;11958;50.836;4.438;2023-03-23T22:00:11;12.30;92.60
23560;DHT22;11958;50.836;4.438;2023-03-23T22:08:44;12.50;92.00
23560;DHT22;11958;50.836;4.438;2023-03-23T22:11:21;12.40;92.20
23560;DHT22;11958;50.836;4.438;2023-03-23T22:14:07;12.50;91.00
23560;DHT22;11958;50.836;4.438;2023-03-23T22:16:32;12.40;92.60
23560;DHT22;11958;50.836;4.438;2023-03-23T22:18:59;12.50;92.20
23560;DHT22;11958;50.836;4.438;2023-03-23T22:21:45;12.60;92.50
23560;DHT22;11958;50.836;4.438;2023-03-23T22:24:19;12.40;92.40
23560;DHT22;11958;50.836;4.438;2023-03-23T22:29:51;12.40;92.40
23560;DHT22;11958;50.836;4.438;2023-03-23T22:32:17;12.50;93.10
23560;DHT22;11958;50.836;4.438;2023-03-23T22:34:43;12.50;92.90
23560;DHT22;11958;50.836;4.438;2023-03-23T22:37:09;12.40;92.80
23560;DHT22;11958;50.836;4.438;2023-03-23T22:39:36;12.60;92.60
23560;DHT22;11958;50.836;4.438;2023-03-23T22:42:02;12.60;93.20
23560;DHT22;11958;50.836;4.438;2023-03-23T22:44:27;12.50;93.30
23560;DHT22;11958;50.836;4.438;2023-03-23T22:46:53;12.50;93.40
23560;DHT22;11958;50.836;4.438;2023-03-23T22:49:18;12.50;93.90
23560;DHT22;11958;50.836;4.438;2023-03-23T22:51:44;12.50;93.80
23560;DHT22;11958;50.836;4.438;2023-03-23T22:54:11;12.40;93.60
23560;DHT22;11958;50.836;4.438;2023-03-23T22:56:37;12.50;93.10
23560;DHT22;11958;50.836;4.438;2023-03-23T22:59:04;12.50;93.80
23560;DHT22;11958;50.836;4.438;2023-03-23T23:01:31;12.30;94.20
23560;DHT22;11958;50.836;4.438;2023-03-23T23:03:56;12.40;94.70
23560;DHT22;11958;50.836;4.438;2023-03-23T23:06:22;12.60;94.50
23560;DHT22;11958;50.836;4.438;2023-03-23T23:08:49;12.50;94.30
23560;DHT22;11958;50.836;4.438;2023-03-23T23:11:17;12.60;93.70
23560;DHT22;11958;50.836;4.438;2023-03-23T23:13:43;12.60;94.50
23560;DHT22;11958;50.836;4.438;2023-03-23T23:16:11;12.50;94.30
23560;DHT22;11958;50.836;4.438;2023-03-23T23:18:38;12.50;94.80
23560;DHT22;11958;50.836;4.438;2023-03-23T23:21:07;12.60;94.10
23560;DHT22;11958;50.836;4.438;2023-03-23T23:23:34;12.70;93.90
23560;DHT22;11958;50.836;4.438;2023-03-23T23:26:01;12.70;93.10
23560;DHT22;11958;50.836;4.438;2023-03-23T23:28:27;12.60;94.70
23560;DHT22;11958;50.836;4.438;2023-03-23T23:30:53;12.50;95.20
23560;DHT22;11958;50.836;4.438;2023-03-23T23:33:19;12.50;96.10
23560;DHT22;11958;50.836;4.438;2023-03-23T23:35:45;12.50;95.60
23560;DHT22;11958;50.836;4.438;2023-03-23T23:38:13;12.50;96.00
23560;DHT22;11958;50.836;4.438;2023-03-23T23:40:39;12.40;96.20
23560;DHT22;11958;50.836;4.438;2023-03-23T23:43:15;12.50;96.30
23560;DHT22;11958;50.836;4.438;2023-03-23T23:45:41;12.50;96.90
23560;DHT22;11958;50.836;4.438;2023-03-23T23:48:08;12.50;96.90